Ana Sayfa
METAR-TAF:

METAR-TAF

Havaalanları :

St. George, Alaska, Amerika Birleşik Devletleri

Enlem: 56-34-43N, Boylam: 169-39-41W, yükseklik: 38 m

Güncel hava durumu gözlemi

Rapor saat 04:53 UTC de 1 saat ve 12 dakika önce yapıldı.
Rüzgar kuzey/kuzeybatıdan 8 kt
Sıcaklık -1°C
Nem 93%
Basınç 1019 hPa
Görüş mesafesi: 16.1 km
1100 ft yükseklikte çok bulutlu

METAR: PAPB 270453Z AUTO 34008KT 10SM OVC011 M01/M02 A3010 RMK AO2 SLP180 T10061022 TSNO $

Saat: 22:05 (06:05 UTC)


TAF: eksik

4.000'den fazla havaalanı için hava durumu gözlemleri ve tahminleri (METAR ve TAF raporları).

Kullanılabilir istasyonlar harita üzerinde sarı ve kırmızı noktalarla gösterilir.

İstasyonun adını görmek için fareyi noktanın üzerinde gezdirin.

Sonrasında hava gözlem ve tahminlerini görmek için tıklayın.

Haritayı değiştirmek için: yaklaştırmak için siyah artı işaretli yeşil düğmeye ve uzaklaştırmak için de eksi işaretli düğmeye hızla tıklayın; bitişik haritalar için yeşil okları kullanın.


METAR-TAF: